Time;durP1;ratioP1;P1;durP2;ratioP2;P2;SDS_P1;SDS_P2;PMS_P1;PMS_P2;Temp;Humidity;BMP_temperature;BMP_pressure;BME280_temperature;BME280_humidity;BME280_pressure;Samples;Min_cycle;Max_cycle;Signal;HPM_P1;HPM_P2
2023/09/10 00:00:18;;;;;;;11.10;9.77;;;;;;;18.63;68.59;98356.59;4977313;28;20034;-71
2023/09/10 00:02:44;;;;;;;11.65;9.45;;;;;;;18.59;68.41;98350.09;4994735;28;20045;-72
2023/09/10 00:05:09;;;;;;;10.27;9.23;;;;;;;18.63;68.56;98363.94;4978859;28;20509;-71
2023/09/10 00:07:35;;;;;;;9.82;8.82;;;;;;;18.68;68.49;98363.06;4977438;28;20049;-71
2023/09/10 00:10:00;;;;;;;10.93;9.23;;;;;;;18.68;68.28;98369.34;4977810;28;20102;-73
2023/09/10 00:12:25;;;;;;;10.68;9.48;;;;;;;18.62;68.44;98360.41;4942065;28;20430;-71
2023/09/10 00:14:51;;;;;;;14.48;10.10;;;;;;;18.51;68.28;98347.19;4986943;28;20123;-71
2023/09/10 00:17:16;;;;;;;10.13;9.13;;;;;;;18.63;68.63;98366.69;4990178;28;20038;-73
2023/09/10 00:19:41;;;;;;;10.50;9.40;;;;;;;18.57;68.81;98373.31;4994842;28;20061;-71
2023/09/10 00:22:07;;;;;;;10.82;9.73;;;;;;;18.45;68.74;98365.56;4977106;28;20069;-71
2023/09/10 00:24:32;;;;;;;10.70;9.70;;;;;;;18.45;68.63;98370.16;4960756;28;20065;-72
2023/09/10 00:26:58;;;;;;;11.05;9.98;;;;;;;18.41;68.64;98371.84;4976936;28;20467;-71
2023/09/10 00:29:23;;;;;;;10.85;9.73;;;;;;;18.40;68.97;98372.94;4977320;28;20030;-71
2023/09/10 00:31:49;;;;;;;10.32;9.25;;;;;;;18.32;68.96;98354.50;4976498;28;20105;-73
2023/09/10 00:34:14;;;;;;;9.90;8.90;;;;;;;18.40;68.75;98367.47;4976899;28;20109;-72
2023/09/10 00:36:40;;;;;;;10.05;8.80;;;;;;;18.44;68.98;98363.88;4994375;28;20046;-71
2023/09/10 00:39:07;;;;;;;10.68;9.68;;;;;;;18.42;69.19;98373.44;4994435;28;20477;-71
2023/09/10 00:41:32;;;;;;;11.55;10.38;;;;;;;18.36;69.33;98344.63;4960635;28;20038;-70
2023/09/10 00:43:58;;;;;;;11.82;10.43;;;;;;;18.52;69.89;98362.47;4977132;28;20385;-71
2023/09/10 00:46:23;;;;;;;10.85;9.70;;;;;;;18.37;69.38;98338.88;4976851;28;20054;-70
2023/09/10 00:48:49;;;;;;;11.75;10.60;;;;;;;18.49;69.30;98354.84;4977643;28;20026;-71
2023/09/10 00:51:14;;;;;;;12.77;10.93;;;;;;;18.59;69.28;98365.66;4977331;28;20038;-72
2023/09/10 00:53:41;;;;;;;12.63;10.88;;;;;;;18.58;69.37;98350.38;4942507;28;20033;-73
2023/09/10 00:56:07;;;;;;;13.23;11.00;;;;;;;18.66;68.99;98359.84;4987612;28;20106;-72
2023/09/10 00:58:32;;;;;;;12.65;10.90;;;;;;;18.65;69.23;98352.78;4957373;28;20441;-70
2023/09/10 01:00:58;;;;;;;11.73;10.40;;;;;;;18.56;69.33;98333.50;4987577;28;20041;-71
2023/09/10 01:03:24;;;;;;;12.80;10.05;;;;;;;18.68;69.32;98363.91;4960331;28;20101;-71
2023/09/10 01:05:51;;;;;;;13.75;10.85;;;;;;;18.62;69.12;98357.69;4976546;28;20041;-72
2023/09/10 01:08:16;;;;;;;12.18;10.98;;;;;;;18.50;69.49;98346.41;4960255;28;20056;-71
2023/09/10 01:10:49;;;;;;;12.18;10.20;;;;;;;18.50;69.84;98351.03;4956973;28;20072;-72
2023/09/10 01:13:32;;;;;;;11.30;10.10;;;;;;;18.44;69.39;98352.16;4974795;28;20042;-71
2023/09/10 01:16:09;;;;;;;11.70;10.50;;;;;;;18.51;69.20;98363.56;4989827;28;20069;-71
2023/09/10 01:18:43;;;;;;;11.23;10.07;;;;;;;18.48;69.69;98359.50;4960224;28;20042;-71
2023/09/10 01:21:17;;;;;;;12.75;10.35;;;;;;;18.52;69.49;98360.56;4976813;28;20038;-72
2023/09/10 01:23:53;;;;;;;11.10;10.00;;;;;;;18.51;69.63;98364.38;4961127;28;20034;-71
2023/09/10 01:26:18;;;;;;;;;;;;;;;18.20;70.00;98362.25;4961026;28;20034;-70
2023/09/10 01:28:44;;;;;;;11.63;10.13;;;;;;;18.37;69.75;98351.69;4977275;28;19916;-71
2023/09/10 01:31:10;;;;;;;12.23;9.90;;;;;;;18.33;69.78;98348.75;4960510;28;20124;-71
2023/09/10 01:33:38;;;;;;;10.93;9.52;;;;;;;18.39;69.77;98357.69;4959891;28;20108;-71
2023/09/10 01:36:25;;;;;;;11.13;10.00;;;;;;;18.40;69.79;98362.03;4968598;28;20088;-72
2023/09/10 01:38:57;;;;;;;10.27;9.27;;;;;;;18.30;70.10;98351.22;4977650;28;20049;-72
2023/09/10 01:41:24;;;;;;;10.93;9.82;;;;;;;18.25;70.29;98333.00;4976033;28;20042;-71
2023/09/10 01:43:50;;;;;;;11.00;9.75;;;;;;;18.27;70.08;98351.81;4976069;28;20018;-71
2023/09/10 01:46:16;;;;;;;10.18;9.18;;;;;;;18.17;69.65;98341.03;4959827;28;20026;-70
2023/09/10 01:48:41;;;;;;;11.90;10.25;;;;;;;18.13;69.49;98350.91;4959208;28;20540;-71
2023/09/10 01:51:07;;;;;;;12.88;11.27;;;;;;;18.13;69.84;98350.91;4974847;28;20046;-71
2023/09/10 01:53:32;;;;;;;11.77;10.55;;;;;;;17.95;70.73;98345.06;4959036;28;20048;-73
2023/09/10 01:55:57;;;;;;;12.98;10.75;;;;;;;17.93;70.98;98355.44;4958927;28;20088;-71
2023/09/10 01:58:24;;;;;;;13.88;11.82;;;;;;;17.90;70.81;98357.91;4975735;28;20042;-71
2023/09/10 02:00:49;;;;;;;12.68;11.35;;;;;;;17.75;71.45;98361.63;4943191;28;20038;-71
2023/09/10 02:03:14;;;;;;;14.05;12.63;;;;;;;17.64;71.99;98365.50;4959200;28;20496;-72
2023/09/10 02:05:43;;;;;;;13.75;11.65;;;;;;;17.50;71.70;98347.38;4956116;28;20034;-71
2023/09/10 02:08:09;;;;;;;14.07;12.68;;;;;;;17.33;72.09;98346.97;4975044;28;20109;-70
2023/09/10 02:10:34;;;;;;;13.25;11.85;;;;;;;17.38;72.69;98369.53;4959508;28;20069;-71
2023/09/10 02:13:00;;;;;;;14.85;13.20;;;;;;;17.29;72.71;98369.31;4939656;28;20039;-71
2023/09/10 02:15:26;;;;;;;15.32;13.65;;;;;;;17.22;73.28;98378.91;4979201;28;20066;-71
2023/09/10 02:17:53;;;;;;;14.68;13.18;;;;;;;17.17;73.05;98365.34;4975113;28;20054;-71
2023/09/10 02:20:18;;;;;;;13.38;12.07;;;;;;;17.21;73.18;98377.28;4959292;28;20080;-71
2023/09/10 02:22:44;;;;;;;13.15;11.63;;;;;;;17.07;73.13;98359.94;4958511;28;20038;-71
2023/09/10 02:25:09;;;;;;;14.15;12.73;;;;;;;17.21;72.99;98380.81;4955740;28;20494;-71
2023/09/10 02:27:35;;;;;;;15.00;12.90;;;;;;;17.13;73.10;98364.25;4940172;28;20093;-72
2023/09/10 02:30:03;;;;;;;14.32;12.27;;;;;;;17.20;73.03;98378.34;4951819;28;20055;-71
2023/09/10 02:32:29;;;;;;;13.07;11.57;;;;;;;17.17;73.02;98371.59;4955527;28;20362;-70
2023/09/10 02:34:55;;;;;;;13.30;11.73;;;;;;;17.22;73.22;98374.25;4953786;28;20042;-71
2023/09/10 02:37:20;;;;;;;14.30;12.68;;;;;;;17.12;73.18;98360.72;4995566;28;20034;-70
2023/09/10 02:39:46;;;;;;;14.40;12.93;;;;;;;17.24;73.40;98377.53;4996184;28;20034;-71
2023/09/10 02:42:12;;;;;;;12.75;11.55;;;;;;;17.17;73.35;98376.22;4995430;28;20023;-71
2023/09/10 02:44:37;;;;;;;13.75;12.02;;;;;;;17.12;73.43;98362.63;4962400;28;20505;-72
2023/09/10 02:47:03;;;;;;;12.65;11.25;;;;;;;17.22;73.40;98378.91;4962319;28;20023;-70
2023/09/10 02:49:28;;;;;;;14.00;11.80;;;;;;;17.26;73.80;98375.34;4959175;28;20027;-71
2023/09/10 02:51:54;;;;;;;15.68;12.45;;;;;;;17.24;73.35;98380.25;4993990;28;20029;-71
2023/09/10 02:54:20;;;;;;;13.68;12.38;;;;;;;17.26;73.31;98379.97;4978374;28;20061;-71
2023/09/10 02:56:45;;;;;;;12.90;11.60;;;;;;;17.25;73.31;98375.59;4978141;28;20030;-72
2023/09/10 02:59:22;;;;;;;12.80;11.25;;;;;;;17.18;73.00;98364.22;4995491;28;20034;-71
2023/09/10 03:01:48;;;;;;;16.17;14.07;;;;;;;17.02;73.62;98379.03;4961293;28;20042;-71
2023/09/10 03:04:14;;;;;;;17.27;15.57;;;;;;;16.88;73.95;98367.13;4958637;28;20652;-71
2023/09/10 03:06:47;;;;;;;13.90;12.52;;;;;;;16.89;74.14;98374.22;4961714;28;20485;-71
2023/09/10 03:09:13;;;;;;;13.45;12.18;;;;;;;16.96;74.16;98374.72;4978172;28;20484;-71
2023/09/10 03:11:39;;;;;;;14.27;12.90;;;;;;;16.97;73.94;98377.16;4994981;28;20026;-71
2023/09/10 03:14:05;;;;;;;14.95;13.32;;;;;;;16.92;73.83;98379.09;4978202;28;20034;-71
2023/09/10 03:16:32;;;;;;;16.27;14.57;;;;;;;16.82;74.12;98385.41;4962249;28;20057;-70
2023/09/10 03:18:58;;;;;;;16.33;14.60;;;;;;;16.57;74.30;98348.25;4995974;28;20605;-71
2023/09/10 03:21:24;;;;;;;16.20;13.68;;;;;;;16.53;74.39;98360.78;4977849;28;20061;-71
2023/09/10 03:23:50;;;;;;;15.00;13.20;;;;;;;16.68;74.83;98381.66;4962335;28;20047;-71
2023/09/10 03:26:15;;;;;;;14.13;12.65;;;;;;;16.71;74.67;98377.56;4961988;28;20072;-70
2023/09/10 03:28:41;;;;;;;15.23;13.18;;;;;;;16.69;74.46;98363.41;4978256;28;20078;-71
2023/09/10 03:31:06;;;;;;;13.80;12.43;;;;;;;16.76;74.63;98370.19;4947428;28;20027;-72
2023/09/10 03:33:32;;;;;;;14.45;12.88;;;;;;;16.73;74.70;98367.22;4990746;28;20030;-70
2023/09/10 03:35:57;;;;;;;16.23;14.63;;;;;;;16.79;74.83;98374.25;4978101;28;20438;-71
2023/09/10 03:38:23;;;;;;;14.30;12.90;;;;;;;16.75;74.81;98375.91;4978038;28;20041;-71
2023/09/10 03:40:48;;;;;;;14.43;12.88;;;;;;;16.76;74.83;98370.19;4958590;28;20034;-71
2023/09/10 03:43:16;;;;;;;15.50;13.90;;;;;;;16.78;74.30;98364.47;4971170;28;20081;-70
2023/09/10 03:45:42;;;;;;;15.48;13.70;;;;;;;16.68;74.29;98367.25;4962432;28;20022;-71
2023/09/10 03:48:07;;;;;;;14.38;12.88;;;;;;;16.59;74.39;98370.53;4977901;28;20427;-71
2023/09/10 03:50:34;;;;;;;14.15;12.63;;;;;;;16.54;74.49;98367.03;4962385;28;20133;-71
2023/09/10 03:53:00;;;;;;;14.25;12.95;;;;;;;16.53;74.86;98366.22;4961951;28;20088;-71
2023/09/10 03:55:25;;;;;;;15.90;14.25;;;;;;;16.57;75.16;98372.72;4962621;28;20389;-71
2023/09/10 03:57:51;;;;;;;16.48;14.85;;;;;;;16.47;75.50;98361.88;4996050;28;20494;-72
2023/09/10 04:00:16;;;;;;;15.60;14.02;;;;;;;16.56;75.36;98370.28;4978920;28;20030;-70
2023/09/10 04:02:42;;;;;;;17.15;15.35;;;;;;;16.52;75.48;98364.56;4960501;28;20502;-71
2023/09/10 04:05:09;;;;;;;17.58;15.73;;;;;;;16.49;75.96;98365.13;4996421;28;20544;-71
2023/09/10 04:07:35;;;;;;;15.90;14.20;;;;;;;16.36;76.61;98349.38;4963169;28;20035;-72
2023/09/10 04:10:00;;;;;;;15.10;13.52;;;;;;;16.42;76.71;98369.22;4982425;28;20504;-71
2023/09/10 04:12:26;;;;;;;15.95;14.30;;;;;;;16.40;77.18;98377.66;4978420;28;20077;-71
2023/09/10 04:14:51;;;;;;;16.02;14.52;;;;;;;16.38;77.39;98374.38;4958994;28;20057;-71
2023/09/10 04:17:17;;;;;;;16.67;14.00;;;;;;;16.48;77.00;98374.34;4978241;28;20042;-70
2023/09/10 04:19:43;;;;;;;17.42;15.20;;;;;;;16.52;77.13;98370.00;4961869;28;20556;-71
2023/09/10 04:22:08;;;;;;;15.88;14.18;;;;;;;16.57;76.80;98375.44;4995566;28;20501;-71
2023/09/10 04:24:34;;;;;;;18.05;16.20;;;;;;;16.57;76.91;98375.44;4958723;28;20034;-71
2023/09/10 04:27:00;;;;;;;16.33;14.25;;;;;;;16.58;77.01;98368.91;4959688;28;20391;-72
2023/09/10 04:29:26;;;;;;;18.85;16.52;;;;;;;16.55;77.00;98380.34;4978386;28;20118;-72
2023/09/10 04:31:52;;;;;;;17.92;16.02;;;;;;;16.53;76.83;98385.25;4977758;28;20073;-72
2023/09/10 04:34:17;;;;;;;19.05;17.13;;;;;;;16.56;76.94;98381.16;4962354;28;20038;-71
2023/09/10 04:36:43;;;;;;;16.65;15.05;;;;;;;16.54;76.44;98381.44;4959062;28;20057;-73
2023/09/10 04:39:09;;;;;;;18.13;16.17;;;;;;;16.52;76.51;98386.31;4958406;28;20030;-71
2023/09/10 04:41:36;;;;;;;21.77;17.83;;;;;;;16.45;76.38;98380.34;4988868;28;20041;-72
2023/09/10 04:44:02;;;;;;;17.08;15.23;;;;;;;16.37;76.68;98372.78;4977306;28;20023;-71
2023/09/10 04:46:28;;;;;;;18.17;16.27;;;;;;;16.41;76.16;98376.56;4977334;28;20037;-70
2023/09/10 04:48:53;;;;;;;16.92;15.30;;;;;;;16.30;75.99;98372.25;4957227;28;20034;-71
2023/09/10 04:51:19;;;;;;;16.17;14.55;;;;;;;16.34;75.64;98395.06;4988165;28;20390;-71
2023/09/10 04:53:44;;;;;;;18.02;16.13;;;;;;;16.21;76.22;98392.94;4960663;28;20102;-72
2023/09/10 04:56:10;;;;;;;16.77;15.18;;;;;;;16.17;75.95;98405.47;4957266;28;20080;-72
2023/09/10 04:58:36;;;;;;;20.02;18.08;;;;;;;15.98;76.69;98401.69;4956949;28;20597;-71
2023/09/10 05:01:01;;;;;;;18.15;15.55;;;;;;;15.90;76.70;98397.63;4986571;28;20045;-70
2023/09/10 05:03:28;;;;;;;22.92;20.45;;;;;;;15.84;77.05;98416.91;4976072;28;20025;-71
2023/09/10 05:06:01;;;;;;;22.23;19.83;;;;;;;15.81;77.41;98409.28;4976033;28;20117;-70
2023/09/10 05:08:27;;;;;;;21.65;19.45;;;;;;;15.88;77.53;98417.97;4960090;28;20622;-71
2023/09/10 05:10:54;;;;;;;17.38;15.65;;;;;;;15.88;77.51;98412.56;4960620;28;20022;-70
2023/09/10 05:13:20;;;;;;;16.25;14.10;;;;;;;15.97;77.41;98427.22;4959903;28;20517;-70
2023/09/10 05:15:49;;;;;;;18.90;15.45;;;;;;;16.01;77.06;98431.00;4976609;28;20019;-70
2023/09/10 05:18:15;;;;;;;15.68;14.10;;;;;;;16.00;76.85;98426.66;4960442;28;20421;-72
2023/09/10 05:20:40;;;;;;;18.55;15.02;;;;;;;16.06;76.83;98422.84;4960202;28;20030;-70
2023/09/10 05:23:06;;;;;;;16.20;14.40;;;;;;;16.12;76.90;98429.91;4959541;28;20121;-70
2023/09/10 05:25:38;;;;;;;18.25;16.27;;;;;;;16.17;76.52;98437.25;4994023;28;20077;-71
2023/09/10 05:28:04;;;;;;;18.33;16.58;;;;;;;16.09;77.14;98440.50;4976695;28;20035;-70
2023/09/10 05:30:30;;;;;;;17.85;16.00;;;;;;;16.09;76.69;98433.19;4976332;28;20396;-70
2023/09/10 05:32:57;;;;;;;15.15;13.65;;;;;;;16.22;76.76;98434.53;4959917;28;20485;-70
2023/09/10 05:35:22;;;;;;;17.25;15.45;;;;;;;16.30;76.82;98434.78;4959253;28;20065;-71
2023/09/10 05:37:48;;;;;;;15.98;14.43;;;;;;;16.24;76.77;98411.38;4959377;28;20107;-71
2023/09/10 05:40:13;;;;;;;14.13;12.80;;;;;;;16.41;76.90;98417.34;4943117;28;20029;-71
2023/09/10 05:42:38;;;;;;;15.32;13.73;;;;;;;16.55;76.55;98423.03;4955322;28;20088;-71
2023/09/10 05:45:04;;;;;;;15.98;14.48;;;;;;;16.69;76.34;98434.94;4955504;28;20034;-71
2023/09/10 05:47:30;;;;;;;17.08;15.27;;;;;;;16.69;76.41;98423.25;4958880;28;20073;-71
2023/09/10 05:49:55;;;;;;;17.55;15.75;;;;;;;16.72;76.49;98428.13;4974842;28;20054;-72
2023/09/10 05:52:21;;;;;;;16.25;14.65;;;;;;;16.77;76.52;98436.28;4974461;28;20472;-71
2023/09/10 05:54:46;;;;;;;16.17;14.35;;;;;;;16.73;76.40;98418.91;4974809;28;20030;-71
2023/09/10 05:57:12;;;;;;;17.15;14.13;;;;;;;16.84;76.34;98437.63;4955549;28;20402;-71
2023/09/10 05:59:37;;;;;;;16.75;14.63;;;;;;;16.90;76.26;98430.22;4974803;28;20022;-72
2023/09/10 06:02:03;;;;;;;16.00;14.35;;;;;;;17.06;75.87;98439.97;4958307;28;20383;-72
2023/09/10 06:04:29;;;;;;;18.77;14.70;;;;;;;16.97;75.89;98425.28;4958763;28;20027;-71
2023/09/10 06:06:54;;;;;;;16.52;14.93;;;;;;;17.16;76.18;98438.00;4958797;28;20063;-71
2023/09/10 06:09:20;;;;;;;17.90;16.10;;;;;;;17.23;76.04;98446.66;4958726;28;20030;-72
2023/09/10 06:11:45;;;;;;;17.77;16.10;;;;;;;17.29;76.08;98442.03;4993535;28;20046;-71
2023/09/10 06:14:11;;;;;;;18.23;16.33;;;;;;;17.29;76.05;98439.28;4956417;28;20026;-71
2023/09/10 06:16:37;;;;;;;17.25;15.40;;;;;;;17.41;76.01;98442.47;4943579;28;20027;-71
2023/09/10 06:19:03;;;;;;;18.48;15.32;;;;;;;17.49;75.81;98439.16;4992221;28;20615;-72
2023/09/10 06:21:29;;;;;;;15.43;13.93;;;;;;;17.39;75.69;98425.59;4962170;28;20030;-71
2023/09/10 06:23:55;;;;;;;18.58;15.45;;;;;;;17.59;76.05;98439.13;4966720;28;20030;-71
2023/09/10 06:26:21;;;;;;;16.80;15.27;;;;;;;17.68;75.89;98448.31;4980903;28;20379;-71
2023/09/10 06:28:46;;;;;;;18.63;15.18;;;;;;;17.67;75.93;98435.78;4978736;28;20045;-72
2023/09/10 06:31:12;;;;;;;16.75;14.93;;;;;;;17.82;76.04;98449.28;4977889;28;20030;-73
2023/09/10 06:33:37;;;;;;;15.15;13.65;;;;;;;17.94;75.60;98451.66;4978112;28;20841;-71
2023/09/10 06:36:03;;;;;;;16.65;14.82;;;;;;;17.91;75.59;98441.31;4978143;28;20379;-71
2023/09/10 06:38:28;;;;;;;17.73;14.40;;;;;;;17.86;76.29;98435.91;4944730;28;20073;-72
2023/09/10 06:40:54;;;;;;;16.33;14.40;;;;;;;18.04;76.22;98434.41;4977989;28;20030;-72
2023/09/10 06:43:19;;;;;;;15.68;13.98;;;;;;;18.13;75.86;98441.66;4977692;28;20069;-71
2023/09/10 06:45:59;;;;;;;15.48;13.88;;;;;;;18.24;75.46;98450.56;4977873;28;20034;-72
2023/09/10 06:48:24;;;;;;;16.33;14.57;;;;;;;18.25;75.92;98457.66;4958697;28;20169;-71
2023/09/10 06:50:49;;;;;;;15.63;14.02;;;;;;;18.29;75.37;98442.31;4986236;28;20478;-71
2023/09/10 06:53:15;;;;;;;15.20;13.60;;;;;;;18.37;75.27;98441.69;4994926;28;20113;-73
2023/09/10 06:55:40;;;;;;;14.70;13.20;;;;;;;18.43;75.15;98438.63;4978012;28;20033;-71
2023/09/10 06:58:05;;;;;;;15.00;13.43;;;;;;;18.54;75.13;98450.28;4961694;28;20038;-71
2023/09/10 07:00:31;;;;;;;14.68;13.23;;;;;;;18.59;74.92;98447.50;4977702;28;20393;-72
2023/09/10 07:02:57;;;;;;;16.55;13.52;;;;;;;18.65;75.28;98434.63;4977298;28;20038;-71
2023/09/10 07:05:23;;;;;;;16.50;13.70;;;;;;;18.74;75.20;98449.25;4995034;28;20425;-72
2023/09/10 07:07:53;;;;;;;14.57;12.57;;;;;;;18.85;74.98;98442.56;4977581;28;20034;-71
2023/09/10 07:10:19;;;;;;;13.00;11.80;;;;;;;18.98;74.35;98456.28;4978366;28;20565;-71
2023/09/10 07:12:44;;;;;;;13.57;11.68;;;;;;;19.07;74.09;98453.72;4994366;28;20087;-71
2023/09/10 07:15:09;;;;;;;12.35;11.13;;;;;;;19.19;73.67;98452.19;4968458;28;20030;-71
2023/09/10 07:17:36;;;;;;;14.32;12.07;;;;;;;19.23;73.55;98442.31;4980356;28;20440;-73
2023/09/10 07:20:02;;;;;;;13.57;12.00;;;;;;;19.40;73.35;98451.94;4977639;28;20042;-72
2023/09/10 07:22:27;;;;;;;15.20;12.15;;;;;;;19.45;73.54;98454.59;4976295;28;20018;-72
2023/09/10 07:24:52;;;;;;;14.27;11.80;;;;;;;19.40;73.68;98446.47;4957674;28;20046;-71
2023/09/10 07:27:18;;;;;;;13.88;12.27;;;;;;;19.48;73.14;98443.09;4974107;28;20030;-72
2023/09/10 07:29:43;;;;;;;13.52;12.15;;;;;;;19.64;72.52;98453.50;4977326;28;20030;-73
2023/09/10 07:32:08;;;;;;;13.50;11.50;;;;;;;19.76;72.03;98458.50;4998854;28;20368;-72
2023/09/10 07:34:34;;;;;;;12.77;11.48;;;;;;;19.89;71.90;98455.00;4994852;28;20038;-72
2023/09/10 07:36:59;;;;;;;14.15;11.65;;;;;;;19.81;71.75;98439.31;4977231;28;20018;-72
2023/09/10 07:39:29;;;;;;;13.43;11.40;;;;;;;20.04;71.65;98457.50;4994471;28;20038;-71
2023/09/10 07:41:54;;;;;;;16.17;11.85;;;;;;;20.18;71.15;98452.88;4977288;28;20085;-71
2023/09/10 07:44:19;;;;;;;13.35;11.43;;;;;;;20.26;70.92;98437.72;4944719;28;20034;-72
2023/09/10 07:46:45;;;;;;;12.10;10.77;;;;;;;20.45;70.76;98452.97;4994266;28;20023;-72
2023/09/10 07:49:10;;;;;;;13.15;11.48;;;;;;;20.35;70.70;98425.78;4976977;28;20042;-72
2023/09/10 07:51:35;;;;;;;12.98;11.77;;;;;;;20.58;70.41;98451.38;4976443;28;20026;-73
2023/09/10 07:54:01;;;;;;;13.27;11.50;;;;;;;20.61;70.48;98440.59;4994193;28;20532;-72
2023/09/10 07:56:27;;;;;;;12.52;11.10;;;;;;;20.75;70.25;98451.56;4976755;28;20022;-72
2023/09/10 07:58:52;;;;;;;12.32;11.02;;;;;;;20.87;69.82;98451.06;4976650;28;20034;-72
2023/09/10 08:01:18;;;;;;;12.60;10.65;;;;;;;20.93;69.54;98442.44;4976334;28;20422;-72
2023/09/10 08:03:43;;;;;;;12.02;10.20;;;;;;;20.95;68.76;98433.91;4960489;28;20124;-71
2023/09/10 08:06:09;;;;;;;15.25;11.20;;;;;;;21.21;68.62;98455.00;4960437;28;20030;-72
2023/09/10 08:08:34;;;;;;;11.60;10.50;;;;;;;21.24;69.04;98434.41;4976493;28;20064;-72
2023/09/10 08:10:59;;;;;;;12.88;10.65;;;;;;;21.47;68.85;98458.00;4976521;28;20456;-72
2023/09/10 08:13:25;;;;;;;12.23;10.57;;;;;;;21.52;68.53;98446.91;4975906;28;20034;-72
2023/09/10 08:15:50;;;;;;;11.55;10.35;;;;;;;21.61;68.26;98453.28;4994058;28;20512;-73
2023/09/10 08:18:16;;;;;;;12.23;10.70;;;;;;;21.55;68.19;98443.56;4957286;28;20038;-72
2023/09/10 08:20:42;;;;;;;12.07;10.13;;;;;;;21.64;68.08;98452.69;4972912;28;20029;-72
2023/09/10 08:23:08;;;;;;;10.82;9.63;;;;;;;21.84;67.77;98456.91;4993289;28;20117;-72
2023/09/10 08:25:34;;;;;;;11.68;10.48;;;;;;;21.96;67.87;98459.91;4940842;28;20038;-72
2023/09/10 08:28:00;;;;;;;11.18;10.05;;;;;;;22.05;67.68;98459.97;4966383;28;20038;-72
2023/09/10 08:30:25;;;;;;;13.73;10.50;;;;;;;22.03;67.63;98469.31;4976078;28;20076;-72
2023/09/10 08:32:51;;;;;;;13.30;10.63;;;;;;;22.03;67.06;98472.03;4956213;28;20482;-72
2023/09/10 08:35:18;;;;;;;13.30;10.48;;;;;;;22.22;66.86;98465.56;4956178;28;20022;-71
2023/09/10 08:37:43;;;;;;;11.95;10.20;;;;;;;22.26;66.92;98472.88;4959803;28;20034;-72
2023/09/10 08:40:10;;;;;;;13.43;10.43;;;;;;;22.36;66.28;98469.03;4975890;28;20033;-73
2023/09/10 08:42:45;;;;;;;12.68;10.05;;;;;;;22.40;65.69;98470.03;4975594;28;20031;-72
2023/09/10 08:45:11;;;;;;;11.25;9.95;;;;;;;22.44;65.82;98454.56;4975888;28;20555;-71
2023/09/10 08:47:41;;;;;;;10.93;9.80;;;;;;;22.63;65.28;98460.66;4956805;28;20030;-72
2023/09/10 08:50:11;;;;;;;11.93;10.13;;;;;;;22.69;65.04;98453.88;4974688;28;20503;-72
2023/09/10 08:52:42;;;;;;;10.88;9.63;;;;;;;22.88;64.27;98459.13;4959323;28;20036;-71
2023/09/10 08:55:08;;;;;;;11.73;10.52;;;;;;;22.95;63.35;98454.81;4976199;28;20164;-73
2023/09/10 08:57:36;;;;;;;11.10;10.00;;;;;;;23.06;63.39;98460.81;4975767;28;20429;-72
2023/09/10 09:00:05;;;;;;;11.90;10.68;;;;;;;23.14;63.71;98452.59;4975640;28;20057;-73
2023/09/10 09:02:31;;;;;;;11.25;10.10;;;;;;;23.23;63.63;98455.34;4976038;28;20026;-72
2023/09/10 09:04:56;;;;;;;12.10;10.70;;;;;;;23.29;63.19;98454.88;4975813;28;20485;-72
2023/09/10 09:07:23;;;;;;;12.48;9.88;;;;;;;23.34;62.94;98462.16;4975689;28;20462;-73
2023/09/10 09:09:50;;;;;;;13.77;10.60;;;;;;;23.40;62.32;98443.63;4962626;28;20041;-72
2023/09/10 09:12:16;;;;;;;12.68;10.55;;;;;;;23.46;61.59;98440.38;4955866;28;20027;-73
2023/09/10 09:14:42;;;;;;;11.05;9.95;;;;;;;23.55;61.88;98456.91;4959367;28;20054;-72
2023/09/10 09:17:10;;;;;;;11.05;9.95;;;;;;;23.62;62.24;98446.25;4969261;28;20113;-72
2023/09/10 09:19:36;;;;;;;11.00;9.90;;;;;;;23.68;61.99;98439.44;4962829;28;20491;-72
2023/09/10 09:22:04;;;;;;;11.30;10.10;;;;;;;23.80;61.82;98443.16;4957231;28;20130;-72
2023/09/10 09:24:30;;;;;;;11.88;10.68;;;;;;;23.95;61.30;98458.34;4975927;28;20045;-73
2023/09/10 09:26:58;;;;;;;11.88;10.70;;;;;;;23.97;60.68;98447.81;4975981;28;20034;-73
2023/09/10 09:29:23;;;;;;;13.07;11.05;;;;;;;24.07;61.27;98447.53;4976063;28;20375;-73
2023/09/10 09:31:48;;;;;;;11.65;10.55;;;;;;;24.15;60.83;98460.47;4992600;28;20033;-73
2023/09/10 09:34:14;;;;;;;11.35;10.25;;;;;;;24.37;60.22;98452.00;4993250;28;20042;-73
2023/09/10 09:36:40;;;;;;;11.55;10.20;;;;;;;24.37;59.47;98440.16;4975823;28;20022;-73
2023/09/10 09:39:07;;;;;;;12.18;10.90;;;;;;;24.50;59.77;98451.00;4956466;28;20672;-73
2023/09/10 09:41:36;;;;;;;13.65;11.13;;;;;;;24.41;60.56;98438.41;4940293;28;20031;-73
2023/09/10 09:44:04;;;;;;;11.85;10.52;;;;;;;24.62;60.75;98439.31;4976015;28;20085;-73
2023/09/10 09:46:32;;;;;;;12.15;10.88;;;;;;;24.81;59.88;98444.44;4975101;28;20454;-73
2023/09/10 09:48:57;;;;;;;12.45;11.13;;;;;;;24.71;59.18;98440.84;4959436;28;20035;-73
2023/09/10 09:51:22;;;;;;;12.13;10.85;;;;;;;24.90;59.01;98442.44;4975660;28;20054;-73
2023/09/10 09:53:48;;;;;;;13.05;10.95;;;;;;;25.03;58.24;98441.41;4975991;28;20486;-73
2023/09/10 09:56:16;;;;;;;14.07;11.25;;;;;;;25.07;58.08;98437.63;4956798;28;20026;-73
2023/09/10 09:58:44;;;;;;;14.13;11.05;;;;;;;25.19;56.83;98451.53;4975346;28;20040;-73
2023/09/10 10:01:12;;;;;;;15.15;11.00;;;;;;;25.14;56.78;98443.44;4942849;28;20049;-73
2023/09/10 10:03:39;;;;;;;11.30;10.10;;;;;;;25.04;56.59;98432.78;4943109;28;20031;-73
2023/09/10 10:06:05;;;;;;;11.38;10.18;;;;;;;25.21;55.73;98445.66;4959110;28;20035;-73
2023/09/10 10:08:33;;;;;;;11.82;9.82;;;;;;;25.32;55.45;98439.44;4975555;28;20121;-73
2023/09/10 10:10:59;;;;;;;11.60;9.48;;;;;;;25.46;55.15;98439.22;4975409;28;20026;-73
2023/09/10 10:13:26;;;;;;;10.88;9.80;;;;;;;25.59;54.60;98438.16;4974925;28;20073;-73
2023/09/10 10:15:56;;;;;;;11.40;8.18;;;;;;;25.59;52.94;98427.09;4974986;28;20389;-73
2023/09/10 10:18:23;;;;;;;9.10;8.20;;;;;;;25.68;51.88;98430.59;4943540;28;20035;-73
2023/09/10 10:20:49;;;;;;;10.70;9.35;;;;;;;25.77;52.79;98428.56;4974996;28;20030;-73
2023/09/10 10:23:16;;;;;;;9.15;8.25;;;;;;;25.78;51.94;98419.16;4958822;28;20426;-73
2023/09/10 10:25:44;;;;;;;10.63;8.38;;;;;;;25.94;51.18;98422.09;4974676;28;20026;-72
2023/09/10 10:28:09;;;;;;;9.20;7.90;;;;;;;26.05;50.26;98409.47;4975016;28;20069;-73
2023/09/10 10:30:44;;;;;;;8.82;7.93;;;;;;;26.19;49.47;98404.50;4974927;28;20026;-73
2023/09/10 10:33:10;;;;;;;8.93;7.78;;;;;;;26.34;49.71;98400.28;4975008;28;20085;-73
2023/09/10 10:35:36;;;;;;;8.75;7.68;;;;;;;26.51;49.60;98398.09;4958888;28;20033;-73
2023/09/10 10:38:03;;;;;;;8.70;7.78;;;;;;;26.37;49.20;98383.03;4974504;28;20437;-73
2023/09/10 10:40:31;;;;;;;12.20;7.55;;;;;;;26.61;49.07;98399.63;4974562;28;20034;-73
2023/09/10 10:43:12;;;;;;;8.73;7.82;;;;;;;26.73;49.27;98394.09;4974155;28;20089;-73
2023/09/10 10:45:38;;;;;;;8.35;7.55;;;;;;;26.76;49.12;98363.06;4946489;28;20550;-74
2023/09/10 10:48:11;;;;;;;9.85;7.93;;;;;;;26.94;48.76;98375.47;4974506;28;20026;-74
2023/09/10 10:50:38;;;;;;;9.57;7.90;;;;;;;27.08;48.51;98389.75;4992286;28;20069;-73
2023/09/10 10:53:11;;;;;;;9.15;8.25;;;;;;;27.11;48.05;98386.28;4952787;28;20037;-73
2023/09/10 10:55:37;;;;;;;10.23;8.18;;;;;;;27.27;47.51;98384.41;4975304;28;20097;-73
2023/09/10 10:58:02;;;;;;;9.65;8.65;;;;;;;27.34;48.27;98381.88;4977468;28;20022;-73
2023/09/10 11:00:29;;;;;;;9.68;8.23;;;;;;;27.49;48.52;98374.03;4959683;28;20035;-73
2023/09/10 11:03:27;;;;;;;11.48;9.10;;;;;;;27.60;48.53;98372.38;4961512;28;20122;-73
2023/09/10 11:05:52;;;;;;;9.75;8.75;;;;;;;27.72;48.64;98375.09;4920012;28;20054;-73
2023/09/10 11:08:26;;;;;;;9.32;7.93;;;;;;;27.88;48.01;98374.00;4995802;28;20093;-72
2023/09/10 11:10:51;;;;;;;9.70;8.70;;;;;;;27.99;48.31;98377.06;4995387;28;20049;-73
2023/09/10 11:13:17;;;;;;;10.38;8.80;;;;;;;28.08;48.28;98372.16;4995625;28;20030;-73
2023/09/10 11:16:13;;;;;;;10.98;8.45;;;;;;;28.22;48.05;98366.19;4978073;28;20038;-73